createdAt,value
2018-07-20T00:00:58.743Z,99.90
2018-07-20T00:05:34.344Z,99.90
2018-07-20T00:10:08.627Z,99.90
2018-07-20T00:14:43.332Z,99.90
2018-07-20T00:19:18.115Z,99.90
2018-07-20T00:23:52.312Z,99.90
2018-07-20T00:28:26.685Z,99.90
2018-07-20T00:33:03.567Z,99.90
2018-07-20T00:37:38.547Z,99.90
2018-07-20T00:42:12.805Z,99.90
2018-07-20T00:46:48.018Z,99.90
2018-07-20T00:51:22.256Z,99.90
2018-07-20T00:55:57.251Z,99.90
2018-07-20T01:00:33.200Z,99.90
2018-07-20T01:05:08.047Z,99.90
2018-07-20T01:09:43.584Z,99.90
2018-07-20T01:14:19.008Z,99.90
2018-07-20T01:18:53.880Z,99.90
2018-07-20T01:23:28.903Z,99.90
2018-07-20T01:28:04.263Z,99.90
2018-07-20T01:32:39.106Z,99.90
2018-07-20T01:37:13.960Z,99.90
2018-07-20T01:41:49.606Z,99.90
2018-07-20T01:46:24.653Z,99.90
2018-07-20T01:50:59.987Z,99.90
2018-07-20T01:55:34.613Z,99.90
2018-07-20T02:00:08.915Z,99.90
2018-07-20T02:04:43.122Z,99.90
2018-07-20T02:09:18.937Z,99.90
2018-07-20T02:13:54.686Z,99.90
2018-07-20T02:18:28.855Z,99.90
2018-07-20T02:23:03.075Z,99.90
2018-07-20T02:27:38.506Z,99.90
2018-07-20T02:32:12.703Z,99.90
2018-07-20T02:36:48.699Z,99.90
2018-07-20T02:41:22.928Z,99.90
2018-07-20T02:45:59.382Z,99.90
2018-07-20T02:50:34.904Z,99.90
2018-07-20T02:55:09.268Z,99.90
2018-07-20T02:59:45.302Z,99.90
2018-07-20T03:04:21.535Z,99.90
2018-07-20T03:08:56.824Z,99.90
2018-07-20T03:13:31.709Z,99.90
2018-07-20T03:18:06.212Z,99.90
2018-07-20T03:22:41.279Z,99.90
2018-07-20T03:27:16.539Z,99.90
2018-07-20T03:31:52.269Z,99.90
2018-07-20T03:36:26.639Z,99.90
2018-07-20T03:41:02.559Z,99.90
2018-07-20T03:45:36.811Z,99.90
2018-07-20T03:50:11.269Z,99.90
2018-07-20T03:54:46.360Z,99.90
2018-07-20T03:59:20.655Z,99.90
2018-07-20T04:03:54.911Z,99.90
2018-07-20T04:08:30.311Z,99.90
2018-07-20T04:13:04.511Z,99.90
2018-07-20T04:17:45.627Z,99.90
2018-07-20T04:22:20.219Z,99.90
2018-07-20T04:26:55.144Z,99.90
2018-07-20T04:31:30.856Z,99.90
2018-07-20T04:36:07.000Z,99.90
2018-07-20T04:40:41.327Z,99.90
2018-07-20T04:45:15.679Z,99.90
2018-07-20T04:49:50.064Z,99.90
2018-07-20T04:58:58.329Z,99.90
2018-07-20T05:03:33.315Z,99.90
2018-07-20T05:08:08.773Z,99.90
2018-07-20T05:12:43.700Z,99.90
2018-07-20T05:17:19.143Z,99.90
2018-07-20T05:21:54.668Z,99.90
2018-07-20T05:26:28.876Z,99.90
2018-07-20T05:31:03.795Z,99.90
2018-07-20T05:35:38.865Z,99.90
2018-07-20T05:40:14.388Z,99.90
2018-07-20T05:44:48.531Z,99.90
2018-07-20T05:49:23.816Z,99.90
2018-07-20T05:53:59.151Z,99.90
2018-07-20T05:58:34.060Z,99.90
2018-07-20T06:03:09.469Z,99.90
2018-07-20T06:07:43.901Z,99.90
2018-07-20T06:16:51.931Z,99.90
2018-07-20T06:21:26.182Z,99.90
2018-07-20T06:26:01.171Z,99.90
2018-07-20T06:30:36.727Z,99.90
2018-07-20T06:35:10.971Z,99.90
2018-07-20T06:39:45.635Z,99.90
2018-07-20T06:44:20.621Z,99.90
2018-07-20T06:48:55.622Z,99.90
2018-07-20T06:53:31.599Z,99.90
2018-07-20T06:58:06.086Z,99.90
2018-07-20T07:02:40.255Z,99.20
2018-07-20T07:07:15.419Z,98.40
2018-07-20T07:11:50.701Z,97.30
2018-07-20T07:16:26.032Z,96.70
2018-07-20T07:21:00.235Z,95.60
2018-07-20T07:25:35.227Z,93.90
2018-07-20T07:30:09.480Z,93.30
2018-07-20T07:34:45.040Z,92.20
2018-07-20T07:39:19.685Z,90.20
2018-07-20T07:43:54.126Z,89.10
2018-07-20T07:48:28.347Z,87.40
2018-07-20T07:53:02.820Z,86.60
2018-07-20T07:57:38.323Z,86.30
2018-07-20T08:02:13.204Z,85.20
2018-07-20T08:11:21.804Z,75.10
2018-07-20T08:15:56.036Z,70.90
2018-07-20T08:20:30.432Z,70.00
2018-07-20T08:25:04.835Z,67.70
2018-07-20T08:29:39.187Z,66.30
2018-07-20T08:34:13.420Z,64.00
2018-07-20T08:38:48.247Z,60.90
2018-07-20T08:43:23.359Z,57.40
2018-07-20T08:47:58.120Z,54.50
2018-07-20T08:52:34.791Z,52.40
2018-07-20T08:57:12.742Z,49.60
2018-07-20T09:01:47.511Z,47.00
2018-07-20T09:10:56.331Z,43.40
2018-07-20T09:15:31.131Z,42.90
2018-07-20T09:20:06.220Z,40.70
2018-07-20T09:24:40.559Z,40.30
2018-07-20T09:29:15.566Z,40.30
2018-07-20T09:38:25.096Z,38.90
2018-07-20T09:43:01.140Z,35.80
2018-07-20T09:47:36.333Z,35.90
2018-07-20T09:52:11.511Z,36.50
2018-07-20T09:56:46.568Z,34.40
2018-07-20T10:01:21.255Z,34.00
2018-07-20T10:05:55.371Z,34.70
2018-07-20T10:10:29.720Z,35.10
2018-07-20T10:15:04.963Z,34.60
2018-07-20T10:19:40.179Z,33.90
2018-07-20T10:24:15.292Z,33.40
2018-07-20T10:28:50.067Z,32.30
2018-07-20T10:37:58.822Z,30.70
2018-07-20T10:42:33.373Z,29.20
2018-07-20T10:51:42.017Z,28.60
2018-07-20T10:56:16.893Z,28.70
2018-07-20T11:00:51.204Z,29.60
2018-07-20T11:05:26.412Z,29.80
2018-07-20T11:10:00.896Z,30.30
2018-07-20T11:14:35.763Z,29.40
2018-07-20T11:19:10.882Z,28.60
2018-07-20T11:23:45.224Z,28.40
2018-07-20T11:28:19.672Z,28.60
2018-07-20T11:32:53.964Z,28.50
2018-07-20T11:37:28.884Z,28.50
2018-07-20T11:42:03.274Z,28.10
2018-07-20T11:46:37.579Z,28.10
2018-07-20T11:51:13.059Z,27.50
2018-07-20T11:55:47.302Z,28.30
2018-07-20T12:00:22.779Z,28.20
2018-07-20T12:09:31.692Z,29.50
2018-07-20T12:14:05.896Z,30.50
2018-07-20T12:18:40.305Z,31.90
2018-07-20T12:23:14.612Z,30.90
2018-07-20T12:27:49.310Z,31.00
2018-07-20T12:32:24.103Z,31.40
2018-07-20T12:36:59.072Z,32.50
2018-07-20T12:46:08.846Z,36.80
2018-07-20T12:50:43.206Z,40.00
2018-07-20T12:55:18.776Z,42.30
2018-07-20T12:59:53.147Z,44.40
2018-07-20T13:04:27.715Z,45.90
2018-07-20T13:09:03.056Z,49.20
2018-07-20T13:13:38.107Z,53.90
2018-07-20T13:18:13.723Z,55.70
2018-07-20T13:22:47.776Z,58.60
2018-07-20T13:27:22.265Z,62.60
2018-07-20T13:31:57.215Z,68.70
2018-07-20T13:36:31.479Z,70.70
2018-07-20T13:41:05.762Z,67.90
2018-07-20T13:45:40.808Z,67.20
2018-07-20T13:50:15.685Z,60.80
2018-07-20T13:54:50.081Z,54.90
2018-07-20T13:59:24.643Z,52.30
2018-07-20T14:03:59.311Z,51.20
2018-07-20T14:08:33.906Z,50.30
2018-07-20T14:13:08.136Z,48.90
2018-07-20T14:17:44.681Z,49.50
2018-07-20T14:22:19.025Z,50.00
2018-07-20T14:26:53.453Z,50.50
2018-07-20T14:31:28.443Z,50.70
2018-07-20T14:36:02.992Z,49.40
2018-07-20T14:40:37.808Z,50.50
2018-07-20T14:45:13.667Z,51.40
2018-07-20T14:49:48.492Z,53.40
2018-07-20T14:54:24.341Z,54.80
2018-07-20T14:58:59.011Z,55.70
2018-07-20T15:03:33.695Z,56.60
2018-07-20T15:08:09.047Z,56.20
2018-07-20T15:12:43.968Z,56.60
2018-07-20T15:17:18.693Z,53.00
2018-07-20T15:21:53.219Z,50.60
2018-07-20T15:26:28.019Z,50.10
2018-07-20T15:31:03.399Z,49.10
2018-07-20T15:35:38.384Z,48.80
2018-07-20T15:40:13.373Z,49.50
2018-07-20T15:44:49.101Z,47.20
2018-07-20T15:49:23.342Z,48.30
2018-07-20T15:53:58.078Z,49.60
2018-07-20T15:58:32.324Z,50.20
2018-07-20T16:03:06.928Z,51.60
2018-07-20T16:07:41.053Z,50.30
2018-07-20T16:12:15.435Z,50.50
2018-07-20T16:16:50.352Z,50.10
2018-07-20T16:21:24.604Z,50.30
2018-07-20T16:25:58.968Z,51.50
2018-07-20T16:30:35.160Z,51.70
2018-07-20T16:35:10.396Z,53.60
2018-07-20T16:44:20.279Z,54.80
2018-07-20T16:48:54.835Z,54.60
2018-07-20T16:53:29.356Z,56.00
2018-07-20T16:58:04.375Z,55.40
2018-07-20T17:02:39.868Z,56.50
2018-07-20T17:07:14.887Z,56.50
2018-07-20T17:11:50.296Z,56.20
2018-07-20T17:16:27.306Z,56.20
2018-07-20T17:21:01.683Z,56.10
2018-07-20T17:25:36.095Z,55.30
2018-07-20T17:30:11.069Z,54.90
2018-07-20T17:34:45.375Z,55.10
2018-07-20T17:39:20.316Z,55.40
2018-07-20T17:43:54.864Z,54.00
2018-07-20T17:48:29.891Z,52.70
2018-07-20T17:53:04.096Z,53.70
2018-07-20T18:02:12.536Z,53.20
2018-07-20T18:06:46.667Z,54.10
2018-07-20T18:11:21.924Z,55.00
2018-07-20T18:15:56.612Z,56.50
2018-07-20T18:20:30.856Z,58.10
2018-07-20T18:25:05.845Z,59.00
2018-07-20T18:29:40.752Z,60.80
2018-07-20T18:34:16.226Z,62.30
2018-07-20T18:38:51.792Z,64.30
2018-07-20T18:43:25.974Z,66.60
2018-07-20T18:48:01.158Z,68.90
2018-07-20T18:52:35.895Z,70.30
2018-07-20T18:57:10.592Z,72.60
2018-07-20T19:06:18.799Z,77.20
2018-07-20T19:10:53.687Z,79.50
2018-07-20T19:15:28.175Z,81.30
2018-07-20T19:20:03.497Z,85.10
2018-07-20T19:24:37.883Z,87.10
2018-07-20T19:29:12.882Z,88.60
2018-07-20T19:33:48.144Z,90.00
2018-07-20T19:38:24.282Z,91.40
2018-07-20T19:42:58.671Z,92.00
2018-07-20T19:47:33.172Z,93.10
2018-07-20T19:52:07.382Z,92.10
2018-07-20T19:56:41.674Z,92.30
2018-07-20T20:01:17.116Z,93.20
2018-07-20T20:05:51.543Z,94.00
2018-07-20T20:10:26.056Z,94.70
2018-07-20T20:19:34.721Z,95.90
2018-07-20T20:24:09.910Z,96.80
2018-07-20T20:28:44.387Z,97.80
2018-07-20T20:33:18.643Z,98.20
2018-07-20T20:37:53.879Z,98.60
2018-07-20T20:42:28.201Z,99.10
2018-07-20T20:47:03.479Z,99.20
2018-07-20T20:51:38.647Z,99.20
2018-07-20T20:56:14.708Z,99.20
2018-07-20T21:05:25.917Z,99.80
2018-07-20T21:14:36.287Z,99.90
2018-07-20T21:19:11.045Z,99.90
2018-07-20T21:28:22.407Z,99.90
2018-07-20T21:32:58.322Z,99.90
2018-07-20T21:37:34.328Z,99.90
2018-07-20T21:42:10.111Z,99.90
2018-07-20T21:51:20.467Z,99.90
2018-07-20T21:55:54.820Z,99.90
2018-07-20T22:00:29.170Z,99.90
2018-07-20T22:05:04.048Z,99.90
2018-07-20T22:09:38.376Z,99.90
2018-07-20T22:14:12.762Z,99.90
2018-07-20T22:18:47.146Z,99.90
2018-07-20T22:23:21.797Z,99.90
2018-07-20T22:27:56.177Z,99.90
2018-07-20T22:32:31.126Z,99.90
2018-07-20T22:37:06.085Z,99.90
2018-07-20T22:46:14.756Z,99.90
2018-07-20T22:50:52.818Z,99.90
2018-07-20T22:55:29.636Z,99.90
2018-07-20T23:00:05.234Z,99.90
2018-07-20T23:04:40.176Z,99.90
2018-07-20T23:09:15.435Z,99.90
2018-07-20T23:13:51.514Z,99.90
2018-07-20T23:18:26.940Z,99.90
2018-07-20T23:23:03.348Z,99.90
2018-07-20T23:27:40.992Z,99.90
2018-07-20T23:32:15.939Z,99.90
2018-07-20T23:36:52.368Z,99.90
2018-07-20T23:41:31.058Z,99.90
2018-07-20T23:46:05.282Z,99.90
2018-07-20T23:50:41.600Z,99.90
2018-07-20T23:55:16.231Z,99.90
2018-07-20T23:59:52.990Z,99.90
